sensor_id;sensor_type;location;lat;lon;timestamp;P1;P2;P0
47081;PMS5003;33066;49.296;14.470;2023-09-08T00:01:59;10;9;
47081;PMS5003;33066;49.296;14.470;2023-09-08T00:04:25;9;8;
47081;PMS5003;33066;49.296;14.470;2023-09-08T00:06:50;9;9;
47081;PMS5003;33066;49.296;14.470;2023-09-08T00:09:16;11;11;
47081;PMS5003;33066;49.296;14.470;2023-09-08T00:11:41;11;11;
47081;PMS5003;33066;49.296;14.470;2023-09-08T00:14:06;10;9;
47081;PMS5003;33066;49.296;14.470;2023-09-08T00:16:32;11;8;
47081;PMS5003;33066;49.296;14.470;2023-09-08T00:18:58;9;9;
47081;PMS5003;33066;49.296;14.470;2023-09-08T00:21:23;12;10;
47081;PMS5003;33066;49.296;14.470;2023-09-08T00:23:49;14;11;
47081;PMS5003;33066;49.296;14.470;2023-09-08T00:26:14;11;10;
47081;PMS5003;33066;49.296;14.470;2023-09-08T00:28:39;12;8;
47081;PMS5003;33066;49.296;14.470;2023-09-08T00:31:05;11;10;
47081;PMS5003;33066;49.296;14.470;2023-09-08T00:33:30;11;11;
47081;PMS5003;33066;49.296;14.470;2023-09-08T00:35:56;9;8;
47081;PMS5003;33066;49.296;14.470;2023-09-08T00:38:20;8;8;
47081;PMS5003;33066;49.296;14.470;2023-09-08T00:40:46;15;13;
47081;PMS5003;33066;49.296;14.470;2023-09-08T00:43:11;13;12;
47081;PMS5003;33066;49.296;14.470;2023-09-08T00:45:38;10;10;
47081;PMS5003;33066;49.296;14.470;2023-09-08T00:48:02;8;8;
47081;PMS5003;33066;49.296;14.470;2023-09-08T00:50:27;10;10;
47081;PMS5003;33066;49.296;14.470;2023-09-08T00:52:52;11;9;
47081;PMS5003;33066;49.296;14.470;2023-09-08T00:55:17;12;12;
47081;PMS5003;33066;49.296;14.470;2023-09-08T00:57:42;11;11;
47081;PMS5003;33066;49.296;14.470;2023-09-08T01:00:08;7;7;
47081;PMS5003;33066;49.296;14.470;2023-09-08T01:02:32;10;10;
47081;PMS5003;33066;49.296;14.470;2023-09-08T01:04:58;13;11;
47081;PMS5003;33066;49.296;14.470;2023-09-08T01:07:23;19;16;
47081;PMS5003;33066;49.296;14.470;2023-09-08T01:09:48;8;8;
47081;PMS5003;33066;49.296;14.470;2023-09-08T01:12:14;8;8;
47081;PMS5003;33066;49.296;14.470;2023-09-08T01:14:39;11;10;
47081;PMS5003;33066;49.296;14.470;2023-09-08T01:17:04;11;9;
47081;PMS5003;33066;49.296;14.470;2023-09-08T01:19:29;14;10;
47081;PMS5003;33066;49.296;14.470;2023-09-08T01:24:26;8;8;
47081;PMS5003;33066;49.296;14.470;2023-09-08T01:26:45;12;11;
47081;PMS5003;33066;49.296;14.470;2023-09-08T01:29:10;9;8;
47081;PMS5003;33066;49.296;14.470;2023-09-08T01:31:36;8;8;
47081;PMS5003;33066;49.296;14.470;2023-09-08T01:34:01;14;14;
47081;PMS5003;33066;49.296;14.470;2023-09-08T01:36:26;11;8;
47081;PMS5003;33066;49.296;14.470;2023-09-08T01:38:51;7;6;
47081;PMS5003;33066;49.296;14.470;2023-09-08T01:41:17;10;10;
47081;PMS5003;33066;49.296;14.470;2023-09-08T01:43:42;8;7;
47081;PMS5003;33066;49.296;14.470;2023-09-08T01:46:07;10;10;
47081;PMS5003;33066;49.296;14.470;2023-09-08T01:48:33;12;12;
47081;PMS5003;33066;49.296;14.470;2023-09-08T01:50:58;10;9;
47081;PMS5003;33066;49.296;14.470;2023-09-08T01:53:23;10;10;
47081;PMS5003;33066;49.296;14.470;2023-09-08T01:55:49;12;8;
47081;PMS5003;33066;49.296;14.470;2023-09-08T01:58:15;9;7;
47081;PMS5003;33066;49.296;14.470;2023-09-08T02:00:40;10;9;
47081;PMS5003;33066;49.296;14.470;2023-09-08T02:03:05;9;9;
47081;PMS5003;33066;49.296;14.470;2023-09-08T02:05:30;11;9;
47081;PMS5003;33066;49.296;14.470;2023-09-08T02:07:55;10;10;
47081;PMS5003;33066;49.296;14.470;2023-09-08T02:10:21;15;15;
47081;PMS5003;33066;49.296;14.470;2023-09-08T02:12:46;12;12;
47081;PMS5003;33066;49.296;14.470;2023-09-08T02:15:11;10;9;
47081;PMS5003;33066;49.296;14.470;2023-09-08T02:17:37;14;9;
47081;PMS5003;33066;49.296;14.470;2023-09-08T02:20:02;8;8;
47081;PMS5003;33066;49.296;14.470;2023-09-08T02:22:27;10;10;
47081;PMS5003;33066;49.296;14.470;2023-09-08T02:24:53;10;8;
47081;PMS5003;33066;49.296;14.470;2023-09-08T02:27:18;11;11;
47081;PMS5003;33066;49.296;14.470;2023-09-08T02:29:43;10;10;
47081;PMS5003;33066;49.296;14.470;2023-09-08T02:32:09;12;11;
47081;PMS5003;33066;49.296;14.470;2023-09-08T02:34:35;13;12;
47081;PMS5003;33066;49.296;14.470;2023-09-08T02:37:00;13;12;
47081;PMS5003;33066;49.296;14.470;2023-09-08T02:39:25;10;10;
47081;PMS5003;33066;49.296;14.470;2023-09-08T02:41:51;12;9;
47081;PMS5003;33066;49.296;14.470;2023-09-08T02:44:16;13;10;
47081;PMS5003;33066;49.296;14.470;2023-09-08T02:46:41;12;12;
47081;PMS5003;33066;49.296;14.470;2023-09-08T02:49:06;10;9;
47081;PMS5003;33066;49.296;14.470;2023-09-08T02:51:32;10;9;
47081;PMS5003;33066;49.296;14.470;2023-09-08T02:53:57;15;15;
47081;PMS5003;33066;49.296;14.470;2023-09-08T02:56:22;11;11;
47081;PMS5003;33066;49.296;14.470;2023-09-08T02:58:47;11;10;
47081;PMS5003;33066;49.296;14.470;2023-09-08T03:01:13;9;9;
47081;PMS5003;33066;49.296;14.470;2023-09-08T03:03:38;10;10;
47081;PMS5003;33066;49.296;14.470;2023-09-08T03:06:04;12;12;
47081;PMS5003;33066;49.296;14.470;2023-09-08T03:08:29;9;8;
47081;PMS5003;33066;49.296;14.470;2023-09-08T03:13:01;12;11;
47081;PMS5003;33066;49.296;14.470;2023-09-08T03:15:27;14;14;
47081;PMS5003;33066;49.296;14.470;2023-09-08T03:17:53;13;13;
47081;PMS5003;33066;49.296;14.470;2023-09-08T03:20:18;11;10;
47081;PMS5003;33066;49.296;14.470;2023-09-08T03:22:44;19;15;
47081;PMS5003;33066;49.296;14.470;2023-09-08T03:25:09;9;8;
47081;PMS5003;33066;49.296;14.470;2023-09-08T03:27:35;8;7;
47081;PMS5003;33066;49.296;14.470;2023-09-08T03:30:00;9;7;
47081;PMS5003;33066;49.296;14.470;2023-09-08T03:32:25;13;11;
47081;PMS5003;33066;49.296;14.470;2023-09-08T03:34:51;10;10;
47081;PMS5003;33066;49.296;14.470;2023-09-08T03:37:16;11;9;
47081;PMS5003;33066;49.296;14.470;2023-09-08T03:39:42;9;9;
47081;PMS5003;33066;49.296;14.470;2023-09-08T03:42:07;11;10;
47081;PMS5003;33066;49.296;14.470;2023-09-08T03:44:32;14;11;
47081;PMS5003;33066;49.296;14.470;2023-09-08T03:46:58;11;8;
47081;PMS5003;33066;49.296;14.470;2023-09-08T03:49:23;13;12;
47081;PMS5003;33066;49.296;14.470;2023-09-08T03:51:49;13;13;
47081;PMS5003;33066;49.296;14.470;2023-09-08T03:54:14;11;10;
47081;PMS5003;33066;49.296;14.470;2023-09-08T03:56:40;11;11;
47081;PMS5003;33066;49.296;14.470;2023-09-08T03:59:05;12;9;
47081;PMS5003;33066;49.296;14.470;2023-09-08T04:01:31;11;11;
47081;PMS5003;33066;49.296;14.470;2023-09-08T04:03:56;13;12;
47081;PMS5003;33066;49.296;14.470;2023-09-08T04:06:22;9;9;
47081;PMS5003;33066;49.296;14.470;2023-09-08T04:08:47;11;11;
47081;PMS5003;33066;49.296;14.470;2023-09-08T04:11:12;14;13;
47081;PMS5003;33066;49.296;14.470;2023-09-08T04:13:38;10;10;
47081;PMS5003;33066;49.296;14.470;2023-09-08T04:16:03;11;10;
47081;PMS5003;33066;49.296;14.470;2023-09-08T04:18:28;11;10;
47081;PMS5003;33066;49.296;14.470;2023-09-08T04:20:54;12;11;
47081;PMS5003;33066;49.296;14.470;2023-09-08T04:23:19;13;12;
47081;PMS5003;33066;49.296;14.470;2023-09-08T04:25:45;10;10;
47081;PMS5003;33066;49.296;14.470;2023-09-08T04:28:10;19;14;
47081;PMS5003;33066;49.296;14.470;2023-09-08T04:30:35;9;9;
47081;PMS5003;33066;49.296;14.470;2023-09-08T04:33:01;11;10;
47081;PMS5003;33066;49.296;14.470;2023-09-08T04:35:26;17;15;
47081;PMS5003;33066;49.296;14.470;2023-09-08T04:37:51;11;11;
47081;PMS5003;33066;49.296;14.470;2023-09-08T04:40:16;15;15;
47081;PMS5003;33066;49.296;14.470;2023-09-08T04:42:42;12;12;
47081;PMS5003;33066;49.296;14.470;2023-09-08T04:45:08;12;11;
47081;PMS5003;33066;49.296;14.470;2023-09-08T04:47:33;12;11;
47081;PMS5003;33066;49.296;14.470;2023-09-08T04:49:58;13;13;
47081;PMS5003;33066;49.296;14.470;2023-09-08T04:52:23;11;11;
47081;PMS5003;33066;49.296;14.470;2023-09-08T04:54:48;10;10;
47081;PMS5003;33066;49.296;14.470;2023-09-08T04:57:13;15;12;
47081;PMS5003;33066;49.296;14.470;2023-09-08T04:59:39;13;13;
47081;PMS5003;33066;49.296;14.470;2023-09-08T05:02:04;13;13;
47081;PMS5003;33066;49.296;14.470;2023-09-08T05:04:29;21;17;
47081;PMS5003;33066;49.296;14.470;2023-09-08T05:06:54;14;13;
47081;PMS5003;33066;49.296;14.470;2023-09-08T05:09:20;11;11;
47081;PMS5003;33066;49.296;14.470;2023-09-08T05:11:45;25;24;
47081;PMS5003;33066;49.296;14.470;2023-09-08T05:14:11;24;22;
47081;PMS5003;33066;49.296;14.470;2023-09-08T05:16:36;11;10;
47081;PMS5003;33066;49.296;14.470;2023-09-08T05:19:01;15;13;
47081;PMS5003;33066;49.296;14.470;2023-09-08T05:21:27;15;14;
47081;PMS5003;33066;49.296;14.470;2023-09-08T05:23:52;25;22;
47081;PMS5003;33066;49.296;14.470;2023-09-08T05:26:18;19;16;
47081;PMS5003;33066;49.296;14.470;2023-09-08T05:28:43;32;27;
47081;PMS5003;33066;49.296;14.470;2023-09-08T05:31:08;52;46;
47081;PMS5003;33066;49.296;14.470;2023-09-08T05:33:33;40;32;
47081;PMS5003;33066;49.296;14.470;2023-09-08T05:35:59;15;13;
47081;PMS5003;33066;49.296;14.470;2023-09-08T05:38:24;14;14;
47081;PMS5003;33066;49.296;14.470;2023-09-08T05:40:49;12;12;
47081;PMS5003;33066;49.296;14.470;2023-09-08T05:43:14;12;12;
47081;PMS5003;33066;49.296;14.470;2023-09-08T05:45:40;9;7;
47081;PMS5003;33066;49.296;14.470;2023-09-08T05:48:05;13;12;
47081;PMS5003;33066;49.296;14.470;2023-09-08T05:50:30;15;14;
47081;PMS5003;33066;49.296;14.470;2023-09-08T05:52:56;16;13;
47081;PMS5003;33066;49.296;14.470;2023-09-08T05:55:21;15;13;
47081;PMS5003;33066;49.296;14.470;2023-09-08T05:57:46;19;16;
47081;PMS5003;33066;49.296;14.470;2023-09-08T06:00:11;15;11;
47081;PMS5003;33066;49.296;14.470;2023-09-08T06:02:37;15;13;
47081;PMS5003;33066;49.296;14.470;2023-09-08T06:05:02;20;18;
47081;PMS5003;33066;49.296;14.470;2023-09-08T06:07:27;22;22;
47081;PMS5003;33066;49.296;14.470;2023-09-08T06:09:52;29;23;
47081;PMS5003;33066;49.296;14.470;2023-09-08T06:12:18;19;17;
47081;PMS5003;33066;49.296;14.470;2023-09-08T06:14:43;21;20;
47081;PMS5003;33066;49.296;14.470;2023-09-08T06:17:09;28;25;
47081;PMS5003;33066;49.296;14.470;2023-09-08T06:19:35;43;40;
47081;PMS5003;33066;49.296;14.470;2023-09-08T06:22:00;30;27;
47081;PMS5003;33066;49.296;14.470;2023-09-08T06:24:25;43;34;
47081;PMS5003;33066;49.296;14.470;2023-09-08T06:26:50;32;25;
47081;PMS5003;33066;49.296;14.470;2023-09-08T06:29:15;21;18;
47081;PMS5003;33066;49.296;14.470;2023-09-08T06:31:41;22;19;
47081;PMS5003;33066;49.296;14.470;2023-09-08T06:34:06;19;18;
47081;PMS5003;33066;49.296;14.470;2023-09-08T06:36:31;17;16;
47081;PMS5003;33066;49.296;14.470;2023-09-08T06:38:56;18;16;
47081;PMS5003;33066;49.296;14.470;2023-09-08T06:41:22;15;14;
47081;PMS5003;33066;49.296;14.470;2023-09-08T06:43:47;16;16;
47081;PMS5003;33066;49.296;14.470;2023-09-08T06:46:13;20;17;
47081;PMS5003;33066;49.296;14.470;2023-09-08T06:48:38;16;16;
47081;PMS5003;33066;49.296;14.470;2023-09-08T06:51:03;15;15;
47081;PMS5003;33066;49.296;14.470;2023-09-08T06:53:29;17;13;
47081;PMS5003;33066;49.296;14.470;2023-09-08T06:55:54;23;19;
47081;PMS5003;33066;49.296;14.470;2023-09-08T06:58:20;17;16;
47081;PMS5003;33066;49.296;14.470;2023-09-08T07:00:46;17;17;
47081;PMS5003;33066;49.296;14.470;2023-09-08T07:03:12;19;18;
47081;PMS5003;33066;49.296;14.470;2023-09-08T07:05:38;17;16;
47081;PMS5003;33066;49.296;14.470;2023-09-08T07:08:03;18;13;
47081;PMS5003;33066;49.296;14.470;2023-09-08T07:10:28;15;12;
47081;PMS5003;33066;49.296;14.470;2023-09-08T07:12:53;23;20;
47081;PMS5003;33066;49.296;14.470;2023-09-08T07:15:19;16;13;
47081;PMS5003;33066;49.296;14.470;2023-09-08T07:17:44;16;13;
47081;PMS5003;33066;49.296;14.470;2023-09-08T07:20:09;15;14;
47081;PMS5003;33066;49.296;14.470;2023-09-08T07:22:35;20;20;
47081;PMS5003;33066;49.296;14.470;2023-09-08T07:25:00;18;16;
47081;PMS5003;33066;49.296;14.470;2023-09-08T07:27:26;17;17;
47081;PMS5003;33066;49.296;14.470;2023-09-08T07:29:51;13;11;
47081;PMS5003;33066;49.296;14.470;2023-09-08T07:32:16;16;14;
47081;PMS5003;33066;49.296;14.470;2023-09-08T07:34:41;17;14;
47081;PMS5003;33066;49.296;14.470;2023-09-08T07:37:07;9;9;
47081;PMS5003;33066;49.296;14.470;2023-09-08T07:39:32;13;12;
47081;PMS5003;33066;49.296;14.470;2023-09-08T07:41:57;11;10;
47081;PMS5003;33066;49.296;14.470;2023-09-08T07:44:22;15;12;
47081;PMS5003;33066;49.296;14.470;2023-09-08T07:46:47;14;13;
47081;PMS5003;33066;49.296;14.470;2023-09-08T07:49:12;18;15;
47081;PMS5003;33066;49.296;14.470;2023-09-08T07:51:37;11;11;
47081;PMS5003;33066;49.296;14.470;2023-09-08T07:54:03;12;11;
47081;PMS5003;33066;49.296;14.470;2023-09-08T07:56:27;12;11;
47081;PMS5003;33066;49.296;14.470;2023-09-08T07:58:53;13;11;
47081;PMS5003;33066;49.296;14.470;2023-09-08T08:01:18;10;9;
47081;PMS5003;33066;49.296;14.470;2023-09-08T08:03:43;11;10;
47081;PMS5003;33066;49.296;14.470;2023-09-08T08:06:09;17;12;
47081;PMS5003;33066;49.296;14.470;2023-09-08T08:08:34;10;10;
47081;PMS5003;33066;49.296;14.470;2023-09-08T08:10:59;12;12;
47081;PMS5003;33066;49.296;14.470;2023-09-08T08:13:24;10;10;
47081;PMS5003;33066;49.296;14.470;2023-09-08T08:15:50;11;11;
47081;PMS5003;33066;49.296;14.470;2023-09-08T08:18:15;10;9;
47081;PMS5003;33066;49.296;14.470;2023-09-08T08:20:41;12;12;
47081;PMS5003;33066;49.296;14.470;2023-09-08T08:23:06;11;11;
47081;PMS5003;33066;49.296;14.470;2023-09-08T08:25:31;9;8;
47081;PMS5003;33066;49.296;14.470;2023-09-08T08:27:56;10;9;
47081;PMS5003;33066;49.296;14.470;2023-09-08T08:30:21;9;7;
47081;PMS5003;33066;49.296;14.470;2023-09-08T08:32:46;11;9;
47081;PMS5003;33066;49.296;14.470;2023-09-08T08:35:11;9;9;
47081;PMS5003;33066;49.296;14.470;2023-09-08T08:37:36;10;9;
47081;PMS5003;33066;49.296;14.470;2023-09-08T08:40:02;14;10;
47081;PMS5003;33066;49.296;14.470;2023-09-08T08:42:30;7;7;
47081;PMS5003;33066;49.296;14.470;2023-09-08T08:44:53;13;10;
47081;PMS5003;33066;49.296;14.470;2023-09-08T08:47:18;11;7;
47081;PMS5003;33066;49.296;14.470;2023-09-08T08:49:43;13;12;
47081;PMS5003;33066;49.296;14.470;2023-09-08T08:52:09;10;9;
47081;PMS5003;33066;49.296;14.470;2023-09-08T08:54:34;8;8;
47081;PMS5003;33066;49.296;14.470;2023-09-08T08:56:59;10;10;
47081;PMS5003;33066;49.296;14.470;2023-09-08T08:59:24;12;9;
47081;PMS5003;33066;49.296;14.470;2023-09-08T09:01:50;10;8;
47081;PMS5003;33066;49.296;14.470;2023-09-08T09:04:16;11;10;
47081;PMS5003;33066;49.296;14.470;2023-09-08T09:06:41;11;10;
47081;PMS5003;33066;49.296;14.470;2023-09-08T09:09:07;11;10;
47081;PMS5003;33066;49.296;14.470;2023-09-08T09:11:32;9;9;
47081;PMS5003;33066;49.296;14.470;2023-09-08T09:13:58;8;8;
47081;PMS5003;33066;49.296;14.470;2023-09-08T09:16:24;11;9;
47081;PMS5003;33066;49.296;14.470;2023-09-08T09:18:53;8;8;
47081;PMS5003;33066;49.296;14.470;2023-09-08T09:21:15;8;6;
47081;PMS5003;33066;49.296;14.470;2023-09-08T09:23:41;12;9;
47081;PMS5003;33066;49.296;14.470;2023-09-08T09:26:06;9;8;
47081;PMS5003;33066;49.296;14.470;2023-09-08T09:28:32;10;9;
47081;PMS5003;33066;49.296;14.470;2023-09-08T09:30:57;13;10;
47081;PMS5003;33066;49.296;14.470;2023-09-08T09:33:23;8;8;
47081;PMS5003;33066;49.296;14.470;2023-09-08T09:35:49;12;12;
47081;PMS5003;33066;49.296;14.470;2023-09-08T09:38:14;8;7;
47081;PMS5003;33066;49.296;14.470;2023-09-08T09:40:40;11;7;
47081;PMS5003;33066;49.296;14.470;2023-09-08T09:43:06;9;9;
47081;PMS5003;33066;49.296;14.470;2023-09-08T09:45:31;10;8;
47081;PMS5003;33066;49.296;14.470;2023-09-08T09:47:57;12;11;
47081;PMS5003;33066;49.296;14.470;2023-09-08T09:50:27;6;6;
47081;PMS5003;33066;49.296;14.470;2023-09-08T09:52:49;14;10;
47081;PMS5003;33066;49.296;14.470;2023-09-08T09:55:15;10;7;
47081;PMS5003;33066;49.296;14.470;2023-09-08T09:57:40;11;8;
47081;PMS5003;33066;49.296;14.470;2023-09-08T10:00:07;6;6;
47081;PMS5003;33066;49.296;14.470;2023-09-08T10:02:32;8;8;
47081;PMS5003;33066;49.296;14.470;2023-09-08T10:04:58;8;7;
47081;PMS5003;33066;49.296;14.470;2023-09-08T10:07:23;7;7;
47081;PMS5003;33066;49.296;14.470;2023-09-08T10:09:49;13;10;
47081;PMS5003;33066;49.296;14.470;2023-09-08T10:12:15;9;8;
47081;PMS5003;33066;49.296;14.470;2023-09-08T10:14:41;8;7;
47081;PMS5003;33066;49.296;14.470;2023-09-08T10:17:07;8;8;
47081;PMS5003;33066;49.296;14.470;2023-09-08T10:19:32;6;6;
47081;PMS5003;33066;49.296;14.470;2023-09-08T10:21:59;9;9;
47081;PMS5003;33066;49.296;14.470;2023-09-08T10:24:24;14;13;
47081;PMS5003;33066;49.296;14.470;2023-09-08T10:26:51;10;7;
47081;PMS5003;33066;49.296;14.470;2023-09-08T10:29:14;6;6;
47081;PMS5003;33066;49.296;14.470;2023-09-08T10:31:41;8;7;
47081;PMS5003;33066;49.296;14.470;2023-09-08T10:34:05;14;12;
47081;PMS5003;33066;49.296;14.470;2023-09-08T10:36:34;12;9;
47081;PMS5003;33066;49.296;14.470;2023-09-08T10:41:26;6;6;
47081;PMS5003;33066;49.296;14.470;2023-09-08T10:43:54;11;11;
47081;PMS5003;33066;49.296;14.470;2023-09-08T10:46:21;9;9;
47081;PMS5003;33066;49.296;14.470;2023-09-08T10:48:40;5;5;
47081;PMS5003;33066;49.296;14.470;2023-09-08T10:51:04;7;6;
47081;PMS5003;33066;49.296;14.470;2023-09-08T10:53:31;7;7;
47081;PMS5003;33066;49.296;14.470;2023-09-08T10:55:56;14;7;
47081;PMS5003;33066;49.296;14.470;2023-09-08T10:58:30;6;6;
47081;PMS5003;33066;49.296;14.470;2023-09-08T11:00:48;11;8;
47081;PMS5003;33066;49.296;14.470;2023-09-08T11:03:13;7;6;
47081;PMS5003;33066;49.296;14.470;2023-09-08T11:05:39;9;9;
47081;PMS5003;33066;49.296;14.470;2023-09-08T11:08:05;8;6;
47081;PMS5003;33066;49.296;14.470;2023-09-08T11:10:30;6;6;
47081;PMS5003;33066;49.296;14.470;2023-09-08T11:12:56;8;7;
47081;PMS5003;33066;49.296;14.470;2023-09-08T11:15:21;6;6;
47081;PMS5003;33066;49.296;14.470;2023-09-08T11:17:47;10;5;
47081;PMS5003;33066;49.296;14.470;2023-09-08T11:20:13;7;6;
47081;PMS5003;33066;49.296;14.470;2023-09-08T11:22:40;6;6;
47081;PMS5003;33066;49.296;14.470;2023-09-08T11:25:04;9;8;
47081;PMS5003;33066;49.296;14.470;2023-09-08T11:27:30;10;7;
47081;PMS5003;33066;49.296;14.470;2023-09-08T11:29:56;8;6;
47081;PMS5003;33066;49.296;14.470;2023-09-08T11:32:20;10;8;
47081;PMS5003;33066;49.296;14.470;2023-09-08T11:34:46;7;7;
47081;PMS5003;33066;49.296;14.470;2023-09-08T11:37:12;9;7;
47081;PMS5003;33066;49.296;14.470;2023-09-08T11:39:38;5;5;
47081;PMS5003;33066;49.296;14.470;2023-09-08T11:42:03;5;5;
47081;PMS5003;33066;49.296;14.470;2023-09-08T11:44:28;5;5;
47081;PMS5003;33066;49.296;14.470;2023-09-08T11:46:54;7;5;
47081;PMS5003;33066;49.296;14.470;2023-09-08T11:49:20;6;6;
47081;PMS5003;33066;49.296;14.470;2023-09-08T11:51:46;7;7;
47081;PMS5003;33066;49.296;14.470;2023-09-08T11:54:11;8;6;
47081;PMS5003;33066;49.296;14.470;2023-09-08T11:56:36;9;7;
47081;PMS5003;33066;49.296;14.470;2023-09-08T11:59:03;8;8;
47081;PMS5003;33066;49.296;14.470;2023-09-08T12:01:27;6;6;
47081;PMS5003;33066;49.296;14.470;2023-09-08T12:03:53;5;4;
47081;PMS5003;33066;49.296;14.470;2023-09-08T12:06:19;5;5;
47081;PMS5003;33066;49.296;14.470;2023-09-08T12:08:45;6;6;
47081;PMS5003;33066;49.296;14.470;2023-09-08T12:11:10;9;9;
47081;PMS5003;33066;49.296;14.470;2023-09-08T12:13:35;4;4;
47081;PMS5003;33066;49.296;14.470;2023-09-08T12:16:00;5;5;
47081;PMS5003;33066;49.296;14.470;2023-09-08T12:23:18;6;5;
47081;PMS5003;33066;49.296;14.470;2023-09-08T12:25:44;13;7;
47081;PMS5003;33066;49.296;14.470;2023-09-08T12:28:08;6;6;
47081;PMS5003;33066;49.296;14.470;2023-09-08T12:30:34;8;7;
47081;PMS5003;33066;49.296;14.470;2023-09-08T12:33:00;8;8;
47081;PMS5003;33066;49.296;14.470;2023-09-08T12:35:25;8;8;
47081;PMS5003;33066;49.296;14.470;2023-09-08T12:37:53;8;8;
47081;PMS5003;33066;49.296;14.470;2023-09-08T12:40:16;8;7;
47081;PMS5003;33066;49.296;14.470;2023-09-08T12:42:43;8;8;
47081;PMS5003;33066;49.296;14.470;2023-09-08T12:45:07;6;6;
47081;PMS5003;33066;49.296;14.470;2023-09-08T12:47:34;8;7;
47081;PMS5003;33066;49.296;14.470;2023-09-08T12:49:58;8;7;
47081;PMS5003;33066;49.296;14.470;2023-09-08T12:52:23;9;8;
47081;PMS5003;33066;49.296;14.470;2023-09-08T12:54:49;7;6;
47081;PMS5003;33066;49.296;14.470;2023-09-08T12:57:14;7;7;
47081;PMS5003;33066;49.296;14.470;2023-09-08T12:59:40;7;7;
47081;PMS5003;33066;49.296;14.470;2023-09-08T13:02:05;19;17;
47081;PMS5003;33066;49.296;14.470;2023-09-08T13:04:30;9;9;
47081;PMS5003;33066;49.296;14.470;2023-09-08T13:06:56;9;9;
47081;PMS5003;33066;49.296;14.470;2023-09-08T13:09:21;11;10;
47081;PMS5003;33066;49.296;14.470;2023-09-08T13:11:47;9;9;
47081;PMS5003;33066;49.296;14.470;2023-09-08T13:14:12;10;8;
47081;PMS5003;33066;49.296;14.470;2023-09-08T13:16:37;7;7;
47081;PMS5003;33066;49.296;14.470;2023-09-08T13:19:03;10;10;
47081;PMS5003;33066;49.296;14.470;2023-09-08T13:21:28;10;6;
47081;PMS5003;33066;49.296;14.470;2023-09-08T13:23:54;9;9;
47081;PMS5003;33066;49.296;14.470;2023-09-08T13:26:20;10;9;
47081;PMS5003;33066;49.296;14.470;2023-09-08T13:28:46;6;6;
47081;PMS5003;33066;49.296;14.470;2023-09-08T13:31:11;7;6;
47081;PMS5003;33066;49.296;14.470;2023-09-08T13:33:36;6;6;
47081;PMS5003;33066;49.296;14.470;2023-09-08T13:36:02;7;6;
47081;PMS5003;33066;49.296;14.470;2023-09-08T13:38:29;6;6;
47081;PMS5003;33066;49.296;14.470;2023-09-08T13:40:53;8;7;
47081;PMS5003;33066;49.296;14.470;2023-09-08T13:43:19;5;5;
47081;PMS5003;33066;49.296;14.470;2023-09-08T13:45:44;8;7;
47081;PMS5003;33066;49.296;14.470;2023-09-08T13:48:10;7;7;
47081;PMS5003;33066;49.296;14.470;2023-09-08T13:50:37;7;6;
47081;PMS5003;33066;49.296;14.470;2023-09-08T13:53:01;8;7;
47081;PMS5003;33066;49.296;14.470;2023-09-08T13:55:27;9;7;
47081;PMS5003;33066;49.296;14.470;2023-09-08T13:57:52;5;5;
47081;PMS5003;33066;49.296;14.470;2023-09-08T14:00:18;7;6;
47081;PMS5003;33066;49.296;14.470;2023-09-08T14:02:44;13;9;
47081;PMS5003;33066;49.296;14.470;2023-09-08T14:05:09;6;6;
47081;PMS5003;33066;49.296;14.470;2023-09-08T14:07:35;7;7;
47081;PMS5003;33066;49.296;14.470;2023-09-08T14:10:00;8;8;
47081;PMS5003;33066;49.296;14.470;2023-09-08T14:12:26;6;6;
47081;PMS5003;33066;49.296;14.470;2023-09-08T14:14:51;7;6;
47081;PMS5003;33066;49.296;14.470;2023-09-08T14:17:17;12;6;
47081;PMS5003;33066;49.296;14.470;2023-09-08T14:19:42;10;9;
47081;PMS5003;33066;49.296;14.470;2023-09-08T14:22:07;9;8;
47081;PMS5003;33066;49.296;14.470;2023-09-08T14:24:33;7;6;
47081;PMS5003;33066;49.296;14.470;2023-09-08T14:26:59;7;5;
47081;PMS5003;33066;49.296;14.470;2023-09-08T14:29:23;6;5;
47081;PMS5003;33066;49.296;14.470;2023-09-08T14:31:49;6;5;
47081;PMS5003;33066;49.296;14.470;2023-09-08T14:34:15;6;6;
47081;PMS5003;33066;49.296;14.470;2023-09-08T14:36:40;6;6;
47081;PMS5003;33066;49.296;14.470;2023-09-08T14:39:06;8;6;
47081;PMS5003;33066;49.296;14.470;2023-09-08T14:41:32;7;7;
47081;PMS5003;33066;49.296;14.470;2023-09-08T14:43:57;11;8;
47081;PMS5003;33066;49.296;14.470;2023-09-08T14:46:24;7;6;
47081;PMS5003;33066;49.296;14.470;2023-09-08T14:48:48;6;6;
47081;PMS5003;33066;49.296;14.470;2023-09-08T14:51:13;7;7;
47081;PMS5003;33066;49.296;14.470;2023-09-08T14:53:39;6;6;
47081;PMS5003;33066;49.296;14.470;2023-09-08T14:56:04;7;6;
47081;PMS5003;33066;49.296;14.470;2023-09-08T14:58:30;7;7;
47081;PMS5003;33066;49.296;14.470;2023-09-08T15:00:55;7;6;
47081;PMS5003;33066;49.296;14.470;2023-09-08T15:03:21;8;6;
47081;PMS5003;33066;49.296;14.470;2023-09-08T15:05:47;6;6;
47081;PMS5003;33066;49.296;14.470;2023-09-08T15:08:13;10;7;
47081;PMS5003;33066;49.296;14.470;2023-09-08T15:10:38;5;4;
47081;PMS5003;33066;49.296;14.470;2023-09-08T15:13:03;9;7;
47081;PMS5003;33066;49.296;14.470;2023-09-08T15:15:29;4;4;
47081;PMS5003;33066;49.296;14.470;2023-09-08T15:17:55;8;6;
47081;PMS5003;33066;49.296;14.470;2023-09-08T15:20:22;7;6;
47081;PMS5003;33066;49.296;14.470;2023-09-08T15:22:47;7;6;
47081;PMS5003;33066;49.296;14.470;2023-09-08T15:25:12;4;4;
47081;PMS5003;33066;49.296;14.470;2023-09-08T15:27:37;6;4;
47081;PMS5003;33066;49.296;14.470;2023-09-08T15:30:03;7;7;
47081;PMS5003;33066;49.296;14.470;2023-09-08T15:32:31;7;5;
47081;PMS5003;33066;49.296;14.470;2023-09-08T15:34:54;7;7;
47081;PMS5003;33066;49.296;14.470;2023-09-08T15:37:19;6;6;
47081;PMS5003;33066;49.296;14.470;2023-09-08T15:39:45;6;6;
47081;PMS5003;33066;49.296;14.470;2023-09-08T15:42:11;5;5;
47081;PMS5003;33066;49.296;14.470;2023-09-08T15:44:36;5;5;
47081;PMS5003;33066;49.296;14.470;2023-09-08T15:47:01;6;6;
47081;PMS5003;33066;49.296;14.470;2023-09-08T15:49:29;4;4;
47081;PMS5003;33066;49.296;14.470;2023-09-08T15:51:53;7;6;
47081;PMS5003;33066;49.296;14.470;2023-09-08T15:54:19;4;4;
47081;PMS5003;33066;49.296;14.470;2023-09-08T15:56:44;5;5;
47081;PMS5003;33066;49.296;14.470;2023-09-08T15:59:09;8;6;
47081;PMS5003;33066;49.296;14.470;2023-09-08T16:01:35;4;4;
47081;PMS5003;33066;49.296;14.470;2023-09-08T16:04:01;9;8;
47081;PMS5003;33066;49.296;14.470;2023-09-08T16:06:26;7;5;
47081;PMS5003;33066;49.296;14.470;2023-09-08T16:08:52;11;11;
47081;PMS5003;33066;49.296;14.470;2023-09-08T16:11:17;9;7;
47081;PMS5003;33066;49.296;14.470;2023-09-08T16:13:43;8;6;
47081;PMS5003;33066;49.296;14.470;2023-09-08T16:16:08;10;6;